Tuskahoma, Oklahoma
Current Conditions -  °F | °C
As of 9:53 AM on Monday 26 Jan 2015 (Local Time) from KMLC Reporting Station
Few Clouds Few Clouds  
Wind Chill: 41°   Ceiling: Unl
Heat Index: 45°   Visibility: 10mi
Dew Point: 33°   Wind: 7mph
Humidity: 63%   Direction: 180°S
Pressure: 30.16"   Gusts: NA
Location:  34.62°N, 95.28°W
Report Text: KMLC 261553Z AUTO 18006KT 10SM FEW080 FEW110 07/01 A3016 RMK AO2 SLP216 T00720006
Loading
Personal Weather Stations






























Interactive Weather Map New forecast layout! Learn more

10-Day Weather Forecast

Advertisements
Track Severe Weather on mobile